sensor_id;sensor_type;location;lat;lon;timestamp;P1;durP1;ratioP1;P2;durP2;ratioP2
15230;SDS011;32569;51.762;8.564;2023-11-22T00:01:14;2.20;;;2.10;;
15230;SDS011;32569;51.762;8.564;2023-11-22T00:03:41;2.50;;;2.40;;
15230;SDS011;32569;51.762;8.564;2023-11-22T00:06:09;2.40;;;2.30;;
15230;SDS011;32569;51.762;8.564;2023-11-22T00:08:35;2.10;;;2.00;;
15230;SDS011;32569;51.762;8.564;2023-11-22T00:11:02;2.30;;;2.10;;
15230;SDS011;32569;51.762;8.564;2023-11-22T00:13:30;2.60;;;2.40;;
15230;SDS011;32569;51.762;8.564;2023-11-22T00:15:57;2.37;;;2.20;;
15230;SDS011;32569;51.762;8.564;2023-11-22T00:18:24;2.17;;;2.07;;
15230;SDS011;32569;51.762;8.564;2023-11-22T00:20:51;2.20;;;2.10;;
15230;SDS011;32569;51.762;8.564;2023-11-22T00:23:24;2.23;;;2.13;;
15230;SDS011;32569;51.762;8.564;2023-11-22T00:25:54;2.27;;;2.17;;
15230;SDS011;32569;51.762;8.564;2023-11-22T00:28:21;2.40;;;2.30;;
15230;SDS011;32569;51.762;8.564;2023-11-22T00:30:48;2.40;;;2.30;;
15230;SDS011;32569;51.762;8.564;2023-11-22T00:33:15;2.17;;;2.07;;
15230;SDS011;32569;51.762;8.564;2023-11-22T00:35:45;2.50;;;2.40;;
15230;SDS011;32569;51.762;8.564;2023-11-22T00:38:12;2.43;;;2.33;;
15230;SDS011;32569;51.762;8.564;2023-11-22T00:40:40;2.53;;;2.33;;
15230;SDS011;32569;51.762;8.564;2023-11-22T00:43:09;2.60;;;2.50;;
15230;SDS011;32569;51.762;8.564;2023-11-22T00:45:36;2.60;;;2.40;;
15230;SDS011;32569;51.762;8.564;2023-11-22T00:48:03;2.20;;;2.10;;
15230;SDS011;32569;51.762;8.564;2023-11-22T00:50:30;2.60;;;2.40;;
15230;SDS011;32569;51.762;8.564;2023-11-22T00:52:56;2.80;;;2.70;;
15230;SDS011;32569;51.762;8.564;2023-11-22T00:55:26;2.70;;;2.60;;
15230;SDS011;32569;51.762;8.564;2023-11-22T00:57:54;2.90;;;2.70;;
15230;SDS011;32569;51.762;8.564;2023-11-22T01:00:21;2.37;;;2.27;;
15230;SDS011;32569;51.762;8.564;2023-11-22T01:02:49;2.53;;;2.43;;
15230;SDS011;32569;51.762;8.564;2023-11-22T01:05:16;2.47;;;2.37;;
15230;SDS011;32569;51.762;8.564;2023-11-22T01:07:43;2.30;;;2.20;;
15230;SDS011;32569;51.762;8.564;2023-11-22T01:10:12;2.30;;;2.20;;
15230;SDS011;32569;51.762;8.564;2023-11-22T01:12:40;2.30;;;2.20;;
15230;SDS011;32569;51.762;8.564;2023-11-22T01:15:09;3.03;;;2.80;;
15230;SDS011;32569;51.762;8.564;2023-11-22T01:17:36;2.47;;;2.37;;
15230;SDS011;32569;51.762;8.564;2023-11-22T01:20:02;2.47;;;2.37;;
15230;SDS011;32569;51.762;8.564;2023-11-22T01:22:30;2.37;;;2.17;;
15230;SDS011;32569;51.762;8.564;2023-11-22T01:24:57;2.63;;;2.43;;
15230;SDS011;32569;51.762;8.564;2023-11-22T01:27:23;2.63;;;2.43;;
15230;SDS011;32569;51.762;8.564;2023-11-22T01:29:53;2.40;;;2.30;;
15230;SDS011;32569;51.762;8.564;2023-11-22T01:32:21;2.50;;;2.30;;
15230;SDS011;32569;51.762;8.564;2023-11-22T01:34:49;2.50;;;2.30;;
15230;SDS011;32569;51.762;8.564;2023-11-22T01:37:18;2.40;;;2.30;;
15230;SDS011;32569;51.762;8.564;2023-11-22T01:39:45;2.33;;;2.23;;
15230;SDS011;32569;51.762;8.564;2023-11-22T01:42:11;2.40;;;2.30;;
15230;SDS011;32569;51.762;8.564;2023-11-22T01:44:38;2.90;;;2.70;;
15230;SDS011;32569;51.762;8.564;2023-11-22T01:47:06;2.53;;;2.33;;
15230;SDS011;32569;51.762;8.564;2023-11-22T01:49:35;2.70;;;2.30;;
15230;SDS011;32569;51.762;8.564;2023-11-22T01:52:01;2.30;;;2.20;;
15230;SDS011;32569;51.762;8.564;2023-11-22T01:54:30;2.30;;;2.20;;
15230;SDS011;32569;51.762;8.564;2023-11-22T01:56:57;2.30;;;2.20;;
15230;SDS011;32569;51.762;8.564;2023-11-22T01:59:25;2.60;;;2.40;;
15230;SDS011;32569;51.762;8.564;2023-11-22T02:01:53;3.00;;;2.80;;
15230;SDS011;32569;51.762;8.564;2023-11-22T02:04:20;3.20;;;3.00;;
15230;SDS011;32569;51.762;8.564;2023-11-22T02:06:54;2.97;;;2.77;;
15230;SDS011;32569;51.762;8.564;2023-11-22T02:09:20;2.90;;;2.70;;
15230;SDS011;32569;51.762;8.564;2023-11-22T02:11:47;2.40;;;2.30;;
15230;SDS011;32569;51.762;8.564;2023-11-22T02:14:14;2.50;;;2.30;;
15230;SDS011;32569;51.762;8.564;2023-11-22T02:16:41;2.30;;;2.13;;
15230;SDS011;32569;51.762;8.564;2023-11-22T02:19:09;2.73;;;2.53;;
15230;SDS011;32569;51.762;8.564;2023-11-22T02:21:41;2.60;;;2.40;;
15230;SDS011;32569;51.762;8.564;2023-11-22T02:24:12;2.63;;;2.47;;
15230;SDS011;32569;51.762;8.564;2023-11-22T02:26:42;2.70;;;2.60;;
15230;SDS011;32569;51.762;8.564;2023-11-22T02:29:10;2.67;;;2.50;;
15230;SDS011;32569;51.762;8.564;2023-11-22T02:31:38;2.87;;;2.67;;
15230;SDS011;32569;51.762;8.564;2023-11-22T02:34:05;2.60;;;2.50;;
15230;SDS011;32569;51.762;8.564;2023-11-22T02:36:32;2.60;;;2.50;;
15230;SDS011;32569;51.762;8.564;2023-11-22T02:38:59;2.33;;;2.23;;
15230;SDS011;32569;51.762;8.564;2023-11-22T02:41:27;2.33;;;2.23;;
15230;SDS011;32569;51.762;8.564;2023-11-22T02:43:55;2.60;;;2.50;;
15230;SDS011;32569;51.762;8.564;2023-11-22T02:46:22;2.67;;;2.47;;
15230;SDS011;32569;51.762;8.564;2023-11-22T02:48:52;2.60;;;2.50;;
15230;SDS011;32569;51.762;8.564;2023-11-22T02:51:19;2.43;;;2.33;;
15230;SDS011;32569;51.762;8.564;2023-11-22T02:53:47;3.07;;;2.77;;
15230;SDS011;32569;51.762;8.564;2023-11-22T02:56:15;2.90;;;2.70;;
15230;SDS011;32569;51.762;8.564;2023-11-22T02:58:46;2.80;;;2.60;;
15230;SDS011;32569;51.762;8.564;2023-11-22T03:01:13;2.70;;;2.60;;
15230;SDS011;32569;51.762;8.564;2023-11-22T03:03:39;2.87;;;2.67;;
15230;SDS011;32569;51.762;8.564;2023-11-22T03:06:06;3.20;;;2.90;;
15230;SDS011;32569;51.762;8.564;2023-11-22T03:08:33;2.20;;;2.10;;
15230;SDS011;32569;51.762;8.564;2023-11-22T03:11:00;2.57;;;2.47;;
15230;SDS011;32569;51.762;8.564;2023-11-22T03:13:27;2.80;;;2.60;;
15230;SDS011;32569;51.762;8.564;2023-11-22T03:15:55;3.00;;;2.80;;
15230;SDS011;32569;51.762;8.564;2023-11-22T03:18:22;2.60;;;2.50;;
15230;SDS011;32569;51.762;8.564;2023-11-22T03:20:51;2.50;;;2.40;;
15230;SDS011;32569;51.762;8.564;2023-11-22T03:23:19;2.43;;;2.33;;
15230;SDS011;32569;51.762;8.564;2023-11-22T03:25:46;2.60;;;2.50;;
15230;SDS011;32569;51.762;8.564;2023-11-22T03:28:13;2.30;;;2.20;;
15230;SDS011;32569;51.762;8.564;2023-11-22T03:30:39;2.53;;;2.43;;
15230;SDS011;32569;51.762;8.564;2023-11-22T03:33:08;2.80;;;2.70;;
15230;SDS011;32569;51.762;8.564;2023-11-22T03:35:35;2.60;;;2.50;;
15230;SDS011;32569;51.762;8.564;2023-11-22T03:38:01;2.50;;;2.40;;
15230;SDS011;32569;51.762;8.564;2023-11-22T03:40:28;2.53;;;2.43;;
15230;SDS011;32569;51.762;8.564;2023-11-22T03:42:55;2.70;;;2.50;;
15230;SDS011;32569;51.762;8.564;2023-11-22T03:45:21;2.67;;;2.57;;
15230;SDS011;32569;51.762;8.564;2023-11-22T03:47:49;2.47;;;2.27;;
15230;SDS011;32569;51.762;8.564;2023-11-22T03:50:17;2.70;;;2.50;;
15230;SDS011;32569;51.762;8.564;2023-11-22T03:52:46;2.50;;;2.40;;
15230;SDS011;32569;51.762;8.564;2023-11-22T03:55:13;2.67;;;2.50;;
15230;SDS011;32569;51.762;8.564;2023-11-22T03:57:40;2.60;;;2.50;;
15230;SDS011;32569;51.762;8.564;2023-11-22T04:00:07;3.47;;;2.70;;
15230;SDS011;32569;51.762;8.564;2023-11-22T04:02:34;2.60;;;2.40;;
15230;SDS011;32569;51.762;8.564;2023-11-22T04:05:01;2.77;;;2.57;;
15230;SDS011;32569;51.762;8.564;2023-11-22T04:07:35;2.60;;;2.40;;
15230;SDS011;32569;51.762;8.564;2023-11-22T04:10:03;2.90;;;2.70;;
15230;SDS011;32569;51.762;8.564;2023-11-22T04:12:31;2.43;;;2.33;;
15230;SDS011;32569;51.762;8.564;2023-11-22T04:14:58;2.67;;;2.47;;
15230;SDS011;32569;51.762;8.564;2023-11-22T04:17:24;2.53;;;2.43;;
15230;SDS011;32569;51.762;8.564;2023-11-22T04:19:51;2.73;;;2.53;;
15230;SDS011;32569;51.762;8.564;2023-11-22T04:22:18;3.03;;;2.83;;
15230;SDS011;32569;51.762;8.564;2023-11-22T04:24:49;2.87;;;2.67;;
15230;SDS011;32569;51.762;8.564;2023-11-22T04:27:16;3.00;;;2.67;;
15230;SDS011;32569;51.762;8.564;2023-11-22T04:29:42;2.30;;;2.20;;
15230;SDS011;32569;51.762;8.564;2023-11-22T04:32:09;2.77;;;2.57;;
15230;SDS011;32569;51.762;8.564;2023-11-22T04:34:36;3.10;;;2.90;;
15230;SDS011;32569;51.762;8.564;2023-11-22T04:37:02;3.07;;;2.87;;
15230;SDS011;32569;51.762;8.564;2023-11-22T04:39:36;2.97;;;2.77;;
15230;SDS011;32569;51.762;8.564;2023-11-22T04:42:05;3.10;;;2.90;;
15230;SDS011;32569;51.762;8.564;2023-11-22T04:44:31;3.10;;;2.90;;
15230;SDS011;32569;51.762;8.564;2023-11-22T04:46:58;3.20;;;2.90;;
15230;SDS011;32569;51.762;8.564;2023-11-22T04:49:25;3.20;;;2.90;;
15230;SDS011;32569;51.762;8.564;2023-11-22T04:51:52;3.07;;;2.87;;
15230;SDS011;32569;51.762;8.564;2023-11-22T04:54:18;2.73;;;2.53;;
15230;SDS011;32569;51.762;8.564;2023-11-22T04:56:45;2.97;;;2.77;;
15230;SDS011;32569;51.762;8.564;2023-11-22T04:59:13;2.77;;;2.57;;
15230;SDS011;32569;51.762;8.564;2023-11-22T05:01:40;2.60;;;2.50;;
15230;SDS011;32569;51.762;8.564;2023-11-22T05:04:07;2.60;;;2.50;;
15230;SDS011;32569;51.762;8.564;2023-11-22T05:06:35;2.77;;;2.57;;
15230;SDS011;32569;51.762;8.564;2023-11-22T05:09:02;2.97;;;2.70;;
15230;SDS011;32569;51.762;8.564;2023-11-22T05:11:28;3.13;;;2.93;;
15230;SDS011;32569;51.762;8.564;2023-11-22T05:13:55;3.13;;;2.93;;
15230;SDS011;32569;51.762;8.564;2023-11-22T05:16:23;3.10;;;2.87;;
15230;SDS011;32569;51.762;8.564;2023-11-22T05:18:50;3.20;;;3.00;;
15230;SDS011;32569;51.762;8.564;2023-11-22T05:21:16;3.00;;;2.80;;
15230;SDS011;32569;51.762;8.564;2023-11-22T05:23:43;3.10;;;2.90;;
15230;SDS011;32569;51.762;8.564;2023-11-22T05:26:10;2.80;;;2.70;;
15230;SDS011;32569;51.762;8.564;2023-11-22T05:28:36;3.43;;;3.10;;
15230;SDS011;32569;51.762;8.564;2023-11-22T05:31:03;3.00;;;2.70;;
15230;SDS011;32569;51.762;8.564;2023-11-22T05:33:31;3.17;;;2.90;;
15230;SDS011;32569;51.762;8.564;2023-11-22T05:35:58;3.20;;;3.00;;
15230;SDS011;32569;51.762;8.564;2023-11-22T05:38:25;3.07;;;2.87;;
15230;SDS011;32569;51.762;8.564;2023-11-22T05:40:51;3.10;;;2.90;;
15230;SDS011;32569;51.762;8.564;2023-11-22T05:43:18;3.00;;;2.80;;
15230;SDS011;32569;51.762;8.564;2023-11-22T05:45:50;3.10;;;2.90;;
15230;SDS011;32569;51.762;8.564;2023-11-22T05:48:17;3.17;;;2.97;;
15230;SDS011;32569;51.762;8.564;2023-11-22T05:50:45;3.30;;;3.10;;
15230;SDS011;32569;51.762;8.564;2023-11-22T05:53:12;3.50;;;3.20;;
15230;SDS011;32569;51.762;8.564;2023-11-22T05:55:44;3.10;;;2.90;;
15230;SDS011;32569;51.762;8.564;2023-11-22T05:58:11;3.33;;;3.13;;
15230;SDS011;32569;51.762;8.564;2023-11-22T06:00:41;3.07;;;2.87;;
15230;SDS011;32569;51.762;8.564;2023-11-22T06:03:08;3.13;;;2.93;;
15230;SDS011;32569;51.762;8.564;2023-11-22T06:05:34;3.17;;;2.97;;
15230;SDS011;32569;51.762;8.564;2023-11-22T06:08:02;3.20;;;3.00;;
15230;SDS011;32569;51.762;8.564;2023-11-22T06:10:29;3.20;;;3.00;;
15230;SDS011;32569;51.762;8.564;2023-11-22T06:12:56;2.93;;;2.73;;
15230;SDS011;32569;51.762;8.564;2023-11-22T06:15:26;3.37;;;3.17;;
15230;SDS011;32569;51.762;8.564;2023-11-22T06:17:53;3.30;;;3.10;;
15230;SDS011;32569;51.762;8.564;2023-11-22T06:20:19;3.40;;;3.10;;
15230;SDS011;32569;51.762;8.564;2023-11-22T06:22:49;3.37;;;3.17;;
15230;SDS011;32569;51.762;8.564;2023-11-22T06:25:17;3.30;;;3.10;;
15230;SDS011;32569;51.762;8.564;2023-11-22T06:27:43;3.80;;;3.50;;
15230;SDS011;32569;51.762;8.564;2023-11-22T06:30:10;3.23;;;3.03;;
15230;SDS011;32569;51.762;8.564;2023-11-22T06:32:39;3.77;;;3.50;;
15230;SDS011;32569;51.762;8.564;2023-11-22T06:35:08;3.97;;;3.63;;
15230;SDS011;32569;51.762;8.564;2023-11-22T06:37:36;3.50;;;3.30;;
15230;SDS011;32569;51.762;8.564;2023-11-22T06:40:03;4.03;;;3.73;;
15230;SDS011;32569;51.762;8.564;2023-11-22T06:42:35;4.30;;;4.00;;
15230;SDS011;32569;51.762;8.564;2023-11-22T06:45:01;4.00;;;3.67;;
15230;SDS011;32569;51.762;8.564;2023-11-22T06:47:34;4.33;;;4.03;;
15230;SDS011;32569;51.762;8.564;2023-11-22T06:50:01;5.80;;;5.40;;
15230;SDS011;32569;51.762;8.564;2023-11-22T06:52:29;7.47;;;6.93;;
15230;SDS011;32569;51.762;8.564;2023-11-22T06:54:55;6.37;;;5.90;;
15230;SDS011;32569;51.762;8.564;2023-11-22T06:57:22;5.03;;;4.73;;
15230;SDS011;32569;51.762;8.564;2023-11-22T06:59:55;5.57;;;5.00;;
15230;SDS011;32569;51.762;8.564;2023-11-22T07:02:22;5.00;;;4.60;;
15230;SDS011;32569;51.762;8.564;2023-11-22T07:04:49;4.70;;;4.30;;
15230;SDS011;32569;51.762;8.564;2023-11-22T07:07:16;4.83;;;4.43;;
15230;SDS011;32569;51.762;8.564;2023-11-22T07:09:43;4.73;;;4.43;;
15230;SDS011;32569;51.762;8.564;2023-11-22T07:12:11;4.23;;;4.00;;
15230;SDS011;32569;51.762;8.564;2023-11-22T07:14:38;4.23;;;3.93;;
15230;SDS011;32569;51.762;8.564;2023-11-22T07:17:06;4.27;;;3.80;;
15230;SDS011;32569;51.762;8.564;2023-11-22T07:19:33;4.17;;;3.87;;
15230;SDS011;32569;51.762;8.564;2023-11-22T07:22:03;3.87;;;3.57;;
15230;SDS011;32569;51.762;8.564;2023-11-22T07:24:40;4.03;;;3.67;;
15230;SDS011;32569;51.762;8.564;2023-11-22T07:27:08;3.80;;;3.60;;
15230;SDS011;32569;51.762;8.564;2023-11-22T07:29:37;3.20;;;3.00;;
15230;SDS011;32569;51.762;8.564;2023-11-22T07:32:04;3.40;;;3.20;;
15230;SDS011;32569;51.762;8.564;2023-11-22T07:34:32;3.17;;;2.97;;
15230;SDS011;32569;51.762;8.564;2023-11-22T07:36:59;3.47;;;3.27;;
15230;SDS011;32569;51.762;8.564;2023-11-22T07:39:26;3.60;;;3.30;;
15230;SDS011;32569;51.762;8.564;2023-11-22T07:41:53;3.57;;;3.37;;
15230;SDS011;32569;51.762;8.564;2023-11-22T07:44:22;3.27;;;3.07;;
15230;SDS011;32569;51.762;8.564;2023-11-22T07:46:49;3.37;;;3.07;;
15230;SDS011;32569;51.762;8.564;2023-11-22T07:49:16;3.30;;;3.10;;
15230;SDS011;32569;51.762;8.564;2023-11-22T07:51:44;3.10;;;2.90;;
15230;SDS011;32569;51.762;8.564;2023-11-22T07:54:11;3.30;;;3.10;;
15230;SDS011;32569;51.762;8.564;2023-11-22T07:56:40;3.10;;;2.90;;
15230;SDS011;32569;51.762;8.564;2023-11-22T07:59:08;3.40;;;3.20;;
15230;SDS011;32569;51.762;8.564;2023-11-22T08:01:35;3.20;;;3.00;;
15230;SDS011;32569;51.762;8.564;2023-11-22T08:04:03;3.47;;;3.27;;
15230;SDS011;32569;51.762;8.564;2023-11-22T08:06:31;3.50;;;3.20;;
15230;SDS011;32569;51.762;8.564;2023-11-22T08:08:59;3.00;;;2.80;;
15230;SDS011;32569;51.762;8.564;2023-11-22T08:11:26;3.30;;;3.10;;
15230;SDS011;32569;51.762;8.564;2023-11-22T08:13:53;3.53;;;3.33;;
15230;SDS011;32569;51.762;8.564;2023-11-22T08:16:23;3.40;;;3.20;;
15230;SDS011;32569;51.762;8.564;2023-11-22T08:18:49;3.50;;;3.30;;
15230;SDS011;32569;51.762;8.564;2023-11-22T08:21:19;3.73;;;3.43;;
15230;SDS011;32569;51.762;8.564;2023-11-22T08:23:46;3.53;;;3.33;;
15230;SDS011;32569;51.762;8.564;2023-11-22T08:26:17;3.30;;;3.10;;
15230;SDS011;32569;51.762;8.564;2023-11-22T08:28:44;3.43;;;3.23;;
15230;SDS011;32569;51.762;8.564;2023-11-22T08:31:11;5.00;;;3.80;;
15230;SDS011;32569;51.762;8.564;2023-11-22T08:33:38;3.53;;;3.30;;
15230;SDS011;32569;51.762;8.564;2023-11-22T08:36:06;3.33;;;3.03;;
15230;SDS011;32569;51.762;8.564;2023-11-22T08:38:34;3.33;;;3.13;;
15230;SDS011;32569;51.762;8.564;2023-11-22T08:41:01;3.73;;;3.50;;
15230;SDS011;32569;51.762;8.564;2023-11-22T08:43:29;3.50;;;3.30;;
15230;SDS011;32569;51.762;8.564;2023-11-22T08:45:57;3.30;;;3.10;;
15230;SDS011;32569;51.762;8.564;2023-11-22T08:48:23;3.60;;;3.40;;
15230;SDS011;32569;51.762;8.564;2023-11-22T08:50:50;3.73;;;3.43;;
15230;SDS011;32569;51.762;8.564;2023-11-22T08:53:18;3.80;;;3.60;;
15230;SDS011;32569;51.762;8.564;2023-11-22T08:55:45;3.67;;;3.47;;
15230;SDS011;32569;51.762;8.564;2023-11-22T08:58:13;3.80;;;3.50;;
15230;SDS011;32569;51.762;8.564;2023-11-22T09:00:41;3.60;;;3.30;;
15230;SDS011;32569;51.762;8.564;2023-11-22T09:03:10;4.13;;;3.83;;
15230;SDS011;32569;51.762;8.564;2023-11-22T09:05:37;4.87;;;4.47;;
15230;SDS011;32569;51.762;8.564;2023-11-22T09:08:04;5.40;;;5.00;;
15230;SDS011;32569;51.762;8.564;2023-11-22T09:10:31;3.93;;;3.60;;
15230;SDS011;32569;51.762;8.564;2023-11-22T09:12:58;3.20;;;3.00;;
15230;SDS011;32569;51.762;8.564;2023-11-22T09:15:25;3.17;;;2.87;;
15230;SDS011;32569;51.762;8.564;2023-11-22T09:17:55;2.50;;;2.40;;
15230;SDS011;32569;51.762;8.564;2023-11-22T09:20:23;2.70;;;2.50;;
15230;SDS011;32569;51.762;8.564;2023-11-22T09:22:50;3.17;;;2.97;;
15230;SDS011;32569;51.762;8.564;2023-11-22T09:25:19;2.70;;;2.60;;
15230;SDS011;32569;51.762;8.564;2023-11-22T09:27:47;2.40;;;2.30;;
15230;SDS011;32569;51.762;8.564;2023-11-22T09:30:18;3.03;;;2.83;;
15230;SDS011;32569;51.762;8.564;2023-11-22T09:32:58;2.40;;;2.30;;
15230;SDS011;32569;51.762;8.564;2023-11-22T09:35:26;2.30;;;2.20;;
15230;SDS011;32569;51.762;8.564;2023-11-22T09:37:54;2.53;;;2.43;;
15230;SDS011;32569;51.762;8.564;2023-11-22T09:40:21;2.33;;;2.23;;
15230;SDS011;32569;51.762;8.564;2023-11-22T09:42:51;2.50;;;2.40;;
15230;SDS011;32569;51.762;8.564;2023-11-22T09:45:20;2.50;;;2.30;;
15230;SDS011;32569;51.762;8.564;2023-11-22T09:47:46;2.83;;;2.63;;
15230;SDS011;32569;51.762;8.564;2023-11-22T09:50:17;2.50;;;2.30;;
15230;SDS011;32569;51.762;8.564;2023-11-22T09:52:46;2.37;;;2.27;;
15230;SDS011;32569;51.762;8.564;2023-11-22T09:55:16;2.50;;;2.40;;
15230;SDS011;32569;51.762;8.564;2023-11-22T09:57:44;2.20;;;2.10;;
15230;SDS011;32569;51.762;8.564;2023-11-22T10:00:11;2.20;;;2.10;;
15230;SDS011;32569;51.762;8.564;2023-11-22T10:02:39;2.40;;;2.30;;
15230;SDS011;32569;51.762;8.564;2023-11-22T10:05:06;2.40;;;2.30;;
15230;SDS011;32569;51.762;8.564;2023-11-22T10:07:35;2.30;;;2.20;;
15230;SDS011;32569;51.762;8.564;2023-11-22T10:10:03;2.33;;;2.00;;
15230;SDS011;32569;51.762;8.564;2023-11-22T10:12:31;2.17;;;2.07;;
15230;SDS011;32569;51.762;8.564;2023-11-22T10:15:10;2.30;;;2.20;;
15230;SDS011;32569;51.762;8.564;2023-11-22T10:17:38;2.33;;;2.23;;
15230;SDS011;32569;51.762;8.564;2023-11-22T10:20:05;2.30;;;2.20;;
15230;SDS011;32569;51.762;8.564;2023-11-22T10:22:47;2.33;;;2.13;;
15230;SDS011;32569;51.762;8.564;2023-11-22T10:25:14;2.17;;;2.07;;
15230;SDS011;32569;51.762;8.564;2023-11-22T10:27:43;2.43;;;2.23;;
15230;SDS011;32569;51.762;8.564;2023-11-22T10:30:11;2.40;;;2.30;;
15230;SDS011;32569;51.762;8.564;2023-11-22T10:32:39;2.27;;;2.17;;
15230;SDS011;32569;51.762;8.564;2023-11-22T10:35:07;2.20;;;2.10;;
15230;SDS011;32569;51.762;8.564;2023-11-22T10:37:34;2.07;;;1.97;;
15230;SDS011;32569;51.762;8.564;2023-11-22T10:40:03;2.63;;;2.43;;
15230;SDS011;32569;51.762;8.564;2023-11-22T10:42:35;2.33;;;2.23;;
15230;SDS011;32569;51.762;8.564;2023-11-22T10:45:05;2.50;;;2.30;;
15230;SDS011;32569;51.762;8.564;2023-11-22T10:47:34;2.23;;;2.13;;
15230;SDS011;32569;51.762;8.564;2023-11-22T10:50:04;2.27;;;2.17;;
15230;SDS011;32569;51.762;8.564;2023-11-22T10:52:33;2.50;;;2.40;;
15230;SDS011;32569;51.762;8.564;2023-11-22T10:55:03;2.60;;;2.40;;
15230;SDS011;32569;51.762;8.564;2023-11-22T10:57:32;2.40;;;2.30;;
15230;SDS011;32569;51.762;8.564;2023-11-22T11:00:07;2.53;;;2.33;;
15230;SDS011;32569;51.762;8.564;2023-11-22T11:02:37;2.50;;;2.30;;
15230;SDS011;32569;51.762;8.564;2023-11-22T11:05:14;2.03;;;1.93;;
15230;SDS011;32569;51.762;8.564;2023-11-22T11:07:44;2.00;;;1.90;;
15230;SDS011;32569;51.762;8.564;2023-11-22T11:10:18;3.10;;;2.00;;
15230;SDS011;32569;51.762;8.564;2023-11-22T11:12:47;2.13;;;2.03;;
15230;SDS011;32569;51.762;8.564;2023-11-22T11:15:14;2.40;;;2.20;;
15230;SDS011;32569;51.762;8.564;2023-11-22T11:17:43;2.50;;;2.30;;
15230;SDS011;32569;51.762;8.564;2023-11-22T11:20:13;2.37;;;2.17;;
15230;SDS011;32569;51.762;8.564;2023-11-22T11:22:42;2.47;;;2.30;;
15230;SDS011;32569;51.762;8.564;2023-11-22T11:25:13;2.23;;;2.13;;
15230;SDS011;32569;51.762;8.564;2023-11-22T11:27:42;2.43;;;2.23;;
15230;SDS011;32569;51.762;8.564;2023-11-22T11:33:06;2.80;;;2.50;;
15230;SDS011;32569;51.762;8.564;2023-11-22T11:35:37;2.10;;;2.00;;
15230;SDS011;32569;51.762;8.564;2023-11-22T11:38:04;2.20;;;2.10;;
15230;SDS011;32569;51.762;8.564;2023-11-22T11:40:34;2.10;;;2.00;;
15230;SDS011;32569;51.762;8.564;2023-11-22T11:43:04;2.20;;;2.10;;
15230;SDS011;32569;51.762;8.564;2023-11-22T11:45:34;2.40;;;2.20;;
15230;SDS011;32569;51.762;8.564;2023-11-22T11:48:04;2.20;;;2.10;;
15230;SDS011;32569;51.762;8.564;2023-11-22T11:50:31;2.20;;;2.10;;
15230;SDS011;32569;51.762;8.564;2023-11-22T11:52:58;2.30;;;2.20;;
15230;SDS011;32569;51.762;8.564;2023-11-22T11:55:27;2.07;;;1.97;;
15230;SDS011;32569;51.762;8.564;2023-11-22T11:57:54;3.83;;;2.23;;
15230;SDS011;32569;51.762;8.564;2023-11-22T12:00:22;2.50;;;2.20;;
15230;SDS011;32569;51.762;8.564;2023-11-22T12:02:49;2.63;;;2.53;;
15230;SDS011;32569;51.762;8.564;2023-11-22T12:05:19;2.23;;;2.13;;
15230;SDS011;32569;51.762;8.564;2023-11-22T12:07:46;2.00;;;1.90;;
15230;SDS011;32569;51.762;8.564;2023-11-22T12:10:13;2.37;;;2.27;;
15230;SDS011;32569;51.762;8.564;2023-11-22T12:12:42;2.20;;;2.10;;
15230;SDS011;32569;51.762;8.564;2023-11-22T12:15:10;2.30;;;2.20;;
15230;SDS011;32569;51.762;8.564;2023-11-22T12:17:40;2.30;;;2.20;;
15230;SDS011;32569;51.762;8.564;2023-11-22T12:20:13;2.40;;;2.30;;
15230;SDS011;32569;51.762;8.564;2023-11-22T12:22:42;2.50;;;2.33;;
15230;SDS011;32569;51.762;8.564;2023-11-22T12:25:10;2.77;;;2.57;;
15230;SDS011;32569;51.762;8.564;2023-11-22T12:27:41;5.57;;;2.20;;
15230;SDS011;32569;51.762;8.564;2023-11-22T12:30:09;1.73;;;1.63;;
15230;SDS011;32569;51.762;8.564;2023-11-22T12:32:54;2.50;;;2.30;;
15230;SDS011;32569;51.762;8.564;2023-11-22T12:35:21;2.10;;;2.00;;
15230;SDS011;32569;51.762;8.564;2023-11-22T12:37:49;1.90;;;1.80;;
15230;SDS011;32569;51.762;8.564;2023-11-22T12:40:16;2.00;;;1.90;;
15230;SDS011;32569;51.762;8.564;2023-11-22T12:42:49;2.03;;;1.93;;
15230;SDS011;32569;51.762;8.564;2023-11-22T12:45:19;1.97;;;1.87;;
15230;SDS011;32569;51.762;8.564;2023-11-22T12:47:48;2.00;;;1.90;;
15230;SDS011;32569;51.762;8.564;2023-11-22T12:50:32;2.00;;;1.90;;
15230;SDS011;32569;51.762;8.564;2023-11-22T12:53:09;1.90;;;1.80;;
15230;SDS011;32569;51.762;8.564;2023-11-22T12:55:37;3.10;;;2.90;;
15230;SDS011;32569;51.762;8.564;2023-11-22T12:58:04;2.60;;;2.43;;
15230;SDS011;32569;51.762;8.564;2023-11-22T13:00:32;1.97;;;1.87;;
15230;SDS011;32569;51.762;8.564;2023-11-22T13:02:59;1.87;;;1.70;;
15230;SDS011;32569;51.762;8.564;2023-11-22T13:05:26;2.10;;;2.00;;
15230;SDS011;32569;51.762;8.564;2023-11-22T13:07:54;2.00;;;1.90;;
15230;SDS011;32569;51.762;8.564;2023-11-22T13:10:20;2.00;;;1.90;;
15230;SDS011;32569;51.762;8.564;2023-11-22T13:12:51;2.20;;;2.10;;
15230;SDS011;32569;51.762;8.564;2023-11-22T13:15:19;1.93;;;1.83;;
15230;SDS011;32569;51.762;8.564;2023-11-22T13:17:48;1.83;;;1.73;;
15230;SDS011;32569;51.762;8.564;2023-11-22T13:20:15;2.00;;;1.90;;
15230;SDS011;32569;51.762;8.564;2023-11-22T13:22:44;2.60;;;2.40;;
15230;SDS011;32569;51.762;8.564;2023-11-22T13:25:13;2.50;;;2.30;;
15230;SDS011;32569;51.762;8.564;2023-11-22T13:27:41;2.30;;;2.10;;
15230;SDS011;32569;51.762;8.564;2023-11-22T13:30:08;4.30;;;4.00;;
15230;SDS011;32569;51.762;8.564;2023-11-22T13:32:36;5.40;;;5.00;;
15230;SDS011;32569;51.762;8.564;2023-11-22T13:35:06;2.87;;;2.77;;
15230;SDS011;32569;51.762;8.564;2023-11-22T13:37:39;3.60;;;3.40;;
15230;SDS011;32569;51.762;8.564;2023-11-22T13:40:07;1.80;;;1.70;;
15230;SDS011;32569;51.762;8.564;2023-11-22T13:42:40;2.17;;;2.00;;
15230;SDS011;32569;51.762;8.564;2023-11-22T13:45:08;2.20;;;2.07;;
15230;SDS011;32569;51.762;8.564;2023-11-22T13:47:36;2.40;;;2.10;;
15230;SDS011;32569;51.762;8.564;2023-11-22T13:50:02;1.80;;;1.70;;
15230;SDS011;32569;51.762;8.564;2023-11-22T13:52:30;2.10;;;2.00;;
15230;SDS011;32569;51.762;8.564;2023-11-22T13:54:57;2.50;;;2.10;;
15230;SDS011;32569;51.762;8.564;2023-11-22T13:57:24;2.20;;;2.07;;
15230;SDS011;32569;51.762;8.564;2023-11-22T13:59:52;2.10;;;2.00;;
15230;SDS011;32569;51.762;8.564;2023-11-22T14:02:19;2.37;;;2.10;;
15230;SDS011;32569;51.762;8.564;2023-11-22T14:04:46;2.13;;;2.03;;
15230;SDS011;32569;51.762;8.564;2023-11-22T14:07:12;2.10;;;2.00;;
15230;SDS011;32569;51.762;8.564;2023-11-22T14:09:39;2.00;;;1.90;;
15230;SDS011;32569;51.762;8.564;2023-11-22T14:12:06;2.20;;;2.00;;
15230;SDS011;32569;51.762;8.564;2023-11-22T14:14:33;2.20;;;2.10;;
15230;SDS011;32569;51.762;8.564;2023-11-22T14:17:01;2.00;;;1.90;;
15230;SDS011;32569;51.762;8.564;2023-11-22T14:19:27;1.90;;;1.80;;
15230;SDS011;32569;51.762;8.564;2023-11-22T14:21:54;2.10;;;2.00;;
15230;SDS011;32569;51.762;8.564;2023-11-22T14:24:21;2.07;;;1.97;;
15230;SDS011;32569;51.762;8.564;2023-11-22T14:26:47;2.13;;;2.03;;
15230;SDS011;32569;51.762;8.564;2023-11-22T14:29:16;2.00;;;1.90;;
15230;SDS011;32569;51.762;8.564;2023-11-22T14:31:42;2.30;;;2.20;;
15230;SDS011;32569;51.762;8.564;2023-11-22T14:34:11;1.87;;;1.77;;
15230;SDS011;32569;51.762;8.564;2023-11-22T14:36:38;1.90;;;1.80;;
15230;SDS011;32569;51.762;8.564;2023-11-22T14:39:04;2.30;;;2.10;;
15230;SDS011;32569;51.762;8.564;2023-11-22T14:41:32;2.03;;;1.93;;
15230;SDS011;32569;51.762;8.564;2023-11-22T14:44:00;2.10;;;2.00;;
15230;SDS011;32569;51.762;8.564;2023-11-22T14:46:27;2.40;;;2.30;;
15230;SDS011;32569;51.762;8.564;2023-11-22T14:48:54;2.03;;;1.93;;
15230;SDS011;32569;51.762;8.564;2023-11-22T14:51:22;2.53;;;2.33;;
15230;SDS011;32569;51.762;8.564;2023-11-22T14:53:49;2.43;;;2.23;;
15230;SDS011;32569;51.762;8.564;2023-11-22T14:56:15;2.30;;;2.20;;